Tropical Cyclones
[Index]
Main Index Home Page Stock Weather Photos Extreme Storms Discussion Storm News and Storm Chasing Reports Tropical Cyclones / Hurricanes / Typhoons Weather Data and Links Wild Fires / Bushfires Weather Observation Techniques Weather Picture Catalogue Tornado Pictures and Reports Stock Video Footage and DVDs for sale
Season 2009-2010 Tropical Cyclone OLGA Track Map
Season 2009-2010 Summaries: [BoM-AU] [JTWC-AU] [JTWC-SIO] [JTWC-SPAC] [JTWC-SH]
<<- Previous TC | BoM 2009-2010 Season | Next TC ->>

click for intensity scale information  Lat/long Grid: Show Hide

 Date Labels: Show Hide

Bureau of Meteorology Tropical Cyclone Data

Name: OLGA
Number: 933 / 200910_07

21 Jan 2010 18:00 UTC to 30 Jan 2010 00:00 UTC

    date/time    lat    long    hPa   cat  kts
2010-01-21 18   11.9   159.9   1004         20          
2010-01-22 00   13.2   157.3   1006         25          
2010-01-22 06   14.5   155.2   1004         25          
2010-01-22 12   15.7   153.6   1001         30          
2010-01-22 18   16.4   151.9    996         35          
2010-01-23 00   16.3   150.4    992    1    35          
2010-01-23 06   16.5   149.3    990    1    40          
2010-01-23 12   16.2   148.3    986    1    50          
2010-01-23 18   15.8   147.1    983    2    50          
2010-01-24 00   16.0   146.6    983    2    50          
2010-01-24 06   16.3   146.4    990    1    40          
2010-01-24 12   17.0   146.3    997         30          
2010-01-24 18   17.6   146.0    997         30          
2010-01-25 00   18.4   144.0   1007         20          
2010-01-25 06   18.2   142.3   1010         15          
2010-01-25 12   18.3   141.5   1009         15          
2010-01-25 18   18.2   140.8   1005         15          
2010-01-26 00   18.0   140.0   1002         20          
2010-01-26 06   17.5   138.8    998         25          
2010-01-26 12   16.6   138.1    999         25          
2010-01-26 18   16.2   137.7    996         25          
2010-01-27 00   16.1   137.4    999         25          
2010-01-27 06   16.3   137.0    996         30          
2010-01-27 12   16.1   136.5    995    1    30          
2010-01-27 18   16.0   136.3    994    1    30          
2010-01-28 00   16.0   136.0    996         30          
2010-01-28 06   16.2   135.7    994    1    30          
2010-01-28 12   16.1   135.8    993    1    30          
2010-01-28 18   16.1   136.0    994    1    30          
2010-01-29 00   15.9   136.5    995    1    30          
2010-01-29 06   15.9   137.4    991    1    30          
2010-01-29 11   16.1   138.7    991    1    35          
2010-01-29 12   16.2   139.0    992    1    35          
2010-01-29 18   17.6   140.4    991    1    35          
2010-01-29 21   18.0   141.0    985    2    35          
2010-01-30 00   18.4   141.3    987    1    30          
Winds are 10-min average.

Tropical cyclone tracks developed by Michael Bath using data from the Bureau of Meteorology and Google Maps.


[Australian Severe Weather index] [Copyright Notice] [Email Contacts] [Search This Site] [Privacy Policy]
Document: tropical_cyclone_olga.htm Updated: 29 June 2017